Ayia Paraskevi, Greece
Current Conditions -  °F | °C
As of 12:20 PM on Sunday 21 Dec 2014 (Local Time) from LGMT Reporting Station
Scattered Clouds Scattered Clouds  
Wind Chill: 61°   Ceiling: Unl
Heat Index: 61°   Visibility: 6mi
Dew Point: 50°   Wind: 16mph
Humidity: 68%   Direction: 200°SSW
Pressure: 30.06"   Gusts: NA
Location:  39.25°N, 26.27°E
Report Text: LGMT 211020Z 20014KT 9999 SCT020 SCT080 16/10 Q1018
Loading
Personal Weather Stations






























Interactive Weather Map New forecast layout! Learn more

10-Day Weather Forecast

Advertisements
Track Severe Weather on mobile